Time;durP1;ratioP1;P1;durP2;ratioP2;P2;SDS_P1;SDS_P2;PMS_P1;PMS_P2;Temp;Humidity;BMP_temperature;BMP_pressure;BME280_temperature;BME280_humidity;BME280_pressure;Samples;Min_cycle;Max_cycle;Signal;HPM_P1;HPM_P2
2022/10/08 00:04:47;;;;;;;72.10;40.00;;;;;;;;;;10381558;28;20231;-82
2022/10/08 00:10:09;;;;;;;74.50;41.77;;;;;;;;;;10367374;28;20392;-82
2022/10/08 00:15:35;;;;;;;71.03;40.70;;;;;;;;;;10366816;28;20249;-83
2022/10/08 00:21:04;;;;;;;67.90;37.87;;;;;;;;;;10377984;28;20210;-83
2022/10/08 00:26:26;;;;;;;69.07;38.63;;;;;;;;;;10350900;28;20271;-83
2022/10/08 00:31:49;;;;;;;69.90;39.27;;;;;;;;;;10350469;28;20208;-82
2022/10/08 00:37:11;;;;;;;71.53;41.33;;;;;;;;;;10364534;28;20417;-82
2022/10/08 00:42:32;;;;;;;77.73;41.03;;;;;;;;;;10363966;28;20484;-82
2022/10/08 00:47:56;;;;;;;72.60;42.27;;;;;;;;;;10350524;28;20208;-83
2022/10/08 00:53:20;;;;;;;74.10;41.83;;;;;;;;;;10396279;28;20258;-83
2022/10/08 00:58:43;;;;;;;82.60;46.40;;;;;;;;;;10380686;28;20516;-83
2022/10/08 01:04:06;;;;;;;84.23;46.20;;;;;;;;;;10389352;28;20200;-82
2022/10/08 01:09:37;;;;;;;70.67;40.13;;;;;;;;;;10382873;28;20206;-82
2022/10/08 01:15:03;;;;;;;65.77;35.57;;;;;;;;;;10403480;28;20206;-82
2022/10/08 01:20:43;;;;;;;57.87;30.87;;;7.90;99.90;;;;;;10356594;28;20229;-83
2022/10/08 01:26:05;;;;;;;45.13;27.07;;;;;;;;;;10357415;28;20245;-83
2022/10/08 01:31:30;;;;;;;42.03;26.40;;;;;;;;;;10387523;28;20199;-82
2022/10/08 01:36:52;;;;;;;47.67;27.13;;;;;;;;;;10387225;28;20221;-82
2022/10/08 01:42:15;;;;;;;41.93;26.47;;;;;;;;;;10370084;28;20249;-82
2022/10/08 01:47:38;;;;;;;45.90;25.37;;;;;;;;;;10398129;28;20229;-82
2022/10/08 01:53:11;;;;;;;44.10;24.77;;;;;;;;;;10383907;28;20258;-82
2022/10/08 01:58:38;;;;;;;49.07;25.53;;;7.40;99.90;;;;;;10368946;28;20544;-83
2022/10/08 02:09:44;;;;;;;47.03;25.60;;;;;;;;;;10385893;28;20201;-82
2022/10/08 02:15:07;;;;;;;42.67;23.47;;;;;;;;;;10367623;28;20204;-83
2022/10/08 02:20:35;;;;;;;34.40;21.43;;;7.50;1.00;;;;;;10354598;28;20285;-82
2022/10/08 02:26:00;;;;;;;39.47;21.57;;;;;;;;;;10355621;28;20202;-83
2022/10/08 02:32:10;;;;;;;33.43;20.80;;;7.00;1.00;;;;;;10354775;28;20331;-82
2022/10/08 02:37:36;;;;;;;36.87;20.57;;;;;;;;;;10179893;29;20304;-81
2022/10/08 02:43:10;;;;;;;31.63;19.13;;;7.30;1.00;;;;;;10195535;29;20238;-82
2022/10/08 02:48:35;;;;;;;30.40;18.87;;;7.20;1.00;;;;;;10153299;29;20262;-82
2022/10/08 02:53:57;;;;;;;27.33;17.77;;;;;;;;;;10192654;29;20252;-82
2022/10/08 02:59:19;;;;;;;32.43;18.67;;;;;;;;;;10179094;29;20253;-82
2022/10/08 03:04:49;;;;;;;30.67;16.73;;;7.20;1.00;;;;;;10215604;28;20208;-81
2022/10/08 03:10:11;;;;;;;29.07;17.17;;;;;;;;;;10389253;28;20201;-82
2022/10/08 03:15:33;;;;;;;30.57;16.90;;;;;;;;;;10351200;28;20242;-82
2022/10/08 03:20:55;;;;;;;26.37;16.37;;;;;;;;;;10382921;28;20596;-82
2022/10/08 03:26:17;;;;;;;24.63;15.40;;;;;;;;;;10366422;28;20193;-82
2022/10/08 03:31:39;;;;;;;26.37;15.20;;;;;;;;;;10354623;28;20225;-82
2022/10/08 03:37:00;;;;;;;24.67;14.63;;;;;;;;;;10352311;28;20458;-82
2022/10/08 03:42:21;;;;;;;22.27;14.40;;;7.00;1.00;;;;;;10365997;28;20199;-82
2022/10/08 03:47:43;;;;;;;22.70;15.27;;;;;;;;;;10365486;28;20287;-82
2022/10/08 03:53:04;;;;;;;21.90;13.27;;;7.00;1.00;;;;;;10367926;28;20229;-82
2022/10/08 03:58:26;;;;;;;28.10;14.87;;;;;;;;;;10378710;28;20235;-83
2022/10/08 04:03:48;;;;;;;23.07;14.07;;;6.90;1.00;;;;;;10352152;28;20216;-82
2022/10/08 04:09:10;;;;;;;20.67;13.37;;;7.20;1.00;;;;;;10386594;28;20493;-82
2022/10/08 04:14:31;;;;;;;23.73;13.97;;;;;;;;;;10394889;28;20201;-82
2022/10/08 04:19:53;;;;;;;17.60;12.37;;;;;;;;;;10363239;28;20280;-83
2022/10/08 04:25:15;;;;;;;21.10;12.70;;;7.00;1.00;;;;;;10364632;28;20379;-82
2022/10/08 04:30:36;;;;;;;21.10;12.97;;;7.10;1.00;;;;;;10352003;28;20193;-83
2022/10/08 04:35:58;;;;;;;20.87;13.27;;;;;;;;;;10366150;28;20202;-82
2022/10/08 04:41:25;;;;;;;20.50;13.53;;;6.90;1.00;;;;;;10359012;28;20222;-83
2022/10/08 04:46:47;;;;;;;24.47;14.77;;;;;;;;;;10386119;28;20201;-82
2022/10/08 04:52:09;;;;;;;33.73;16.67;;;;;;;;;;10358512;28;20228;-82
2022/10/08 04:57:30;;;;;;;30.90;17.40;;;6.60;1.00;;;;;;10371876;28;20250;-83
2022/10/08 05:09:10;;;;;;;29.20;19.27;;;7.00;1.00;;;;;;10186186;29;20241;-82
2022/10/08 05:14:31;;;;;;;32.93;18.93;;;7.20;1.00;;;;;;10170471;29;20220;-82
2022/10/08 05:19:53;;;;;;;26.10;16.07;;;;;;;;;;10160193;29;20248;-82
2022/10/08 05:25:15;;;;;;;23.90;15.73;;;7.40;1.00;;;;;;10169798;29;20251;-82
2022/10/08 05:30:36;;;;;;;24.33;16.57;;;7.60;1.00;;;;;;10198147;29;20296;-83
2022/10/08 05:36:04;;;;;;;23.00;15.97;;;7.50;1.00;;;;;;10188245;28;20235;-83
2022/10/08 05:41:32;;;;;;;20.60;14.43;;;7.40;1.00;;;;;;10387022;28;20186;-82
2022/10/08 05:46:53;;;;;;;19.97;14.03;;;;;;;;;;10383803;28;20199;-82
2022/10/08 05:52:15;;;;;;;24.17;15.27;;;7.70;1.00;;;;;;10372503;28;20308;-82
2022/10/08 05:57:36;;;;;;;24.13;17.43;;;7.40;1.00;;;;;;10386615;28;20241;-82
2022/10/08 06:02:57;;;;;;;21.80;15.20;;;7.60;1.00;;;;;;10329551;28;20278;-82
2022/10/08 06:08:20;;;;;;;18.87;13.07;;;8.10;1.00;;;;;;10372070;28;20202;-82
2022/10/08 06:13:41;;;;;;;18.10;12.70;;;8.30;1.00;;;;;;10387187;28;20261;-82
2022/10/08 06:19:04;;;;;;;18.57;13.20;;;8.50;1.00;;;;;;10370642;28;20333;-82
2022/10/08 06:24:25;;;;;;;17.37;11.97;;;8.40;1.00;;;;;;10331399;28;20204;-82
2022/10/08 06:29:46;;;;;;;35.43;21.83;;;9.10;1.00;;;;;;10356794;28;20231;-81
2022/10/08 06:35:08;;;;;;;33.27;20.57;;;;;;;;;;10355202;28;20250;-82
2022/10/08 06:40:39;;;;;;;30.93;21.07;;;;;;;;;;10354978;28;20221;-82
2022/10/08 06:46:05;;;;;;;55.00;33.40;;;;;;;;;;10398806;28;20246;-82
2022/10/08 06:51:26;;;;;;;51.27;32.13;;;;;;;;;;10368733;28;20319;-83
2022/10/08 06:56:48;;;;;;;40.20;26.33;;;;;;;;;;10370528;28;20209;-82
2022/10/08 07:02:10;;;;;;;31.57;18.47;;;10.00;99.90;;;;;;10385905;28;20230;-82
2022/10/08 07:07:31;;;;;;;38.13;20.93;;;11.40;99.90;;;;;;10367213;28;20232;-82
2022/10/08 07:12:52;;;;;;;23.80;13.80;;;11.80;99.90;;;;;;10367268;28;20199;-82
2022/10/08 07:18:15;;;;;;;17.35;9.55;;;;;;;;;;10369239;28;20258;-82
2022/10/08 07:23:36;;;;;;;15.23;8.48;;;13.10;1.00;;;;;;10369660;28;20277;-83
2022/10/08 07:29:04;;;;;;;13.70;8.65;;;13.70;1.00;;;;;;10380173;28;20219;-82
2022/10/08 07:34:25;;;;;;;15.93;9.55;;;13.00;1.00;;;;;;10382247;28;20197;-82
2022/10/08 07:39:46;;;;;;;12.48;9.05;;;13.30;1.00;;;;;;10353882;28;20230;-83
2022/10/08 07:45:08;;;;;;;16.67;11.93;;;14.10;99.90;;;;;;10356673;28;20200;-83
2022/10/08 07:50:30;;;;;;;19.27;12.60;;;;;;;;;;10378598;28;20197;-83
2022/10/08 07:55:51;;;;;;;14.70;8.43;;;15.30;99.90;;;;;;10368768;28;20228;-83
2022/10/08 08:01:15;;;;;;;12.23;7.95;;;16.10;99.90;;;;;;10378641;28;20451;-83
2022/10/08 08:06:46;;;;;;;13.43;9.00;;;16.70;1.00;;;;;;10378954;28;20299;-82
2022/10/08 08:12:07;;;;;;;10.10;7.30;;;16.60;99.90;;;;;;10395081;28;20189;-83
2022/10/08 08:17:29;;;;;;;12.50;7.53;;;16.50;99.90;;;;;;10348884;28;20228;-83
2022/10/08 08:22:50;;;;;;;8.32;6.35;;;16.70;99.90;;;;;;10367785;28;20227;-83
2022/10/08 08:28:12;;;;;;;8.40;5.85;;;17.10;1.00;;;;;;10371370;28;20199;-83
2022/10/08 08:33:33;;;;;;;10.70;6.97;;;17.20;1.00;;;;;;10365076;28;20240;-83
2022/10/08 08:38:55;;;;;;;10.35;7.00;;;17.10;1.00;;;;;;10364011;28;20251;-82
2022/10/08 08:44:23;;;;;;;11.05;7.35;;;16.50;1.00;;;;;;10362816;28;20204;-83
2022/10/08 08:50:05;;;;;;;13.43;7.30;;;16.00;1.00;;;;;;10379550;28;20230;-82
2022/10/08 08:55:39;;;;;;;7.85;6.10;;;15.90;1.00;;;;;;10350723;28;20274;-83
2022/10/08 09:01:07;;;;;;;9.95;5.13;;;15.90;99.90;;;;;;10363232;28;20224;-83
2022/10/08 09:06:29;;;;;;;10.73;6.22;;;16.40;1.00;;;;;;10349719;28;20276;-82
2022/10/08 09:11:50;;;;;;;13.63;7.78;;;16.70;1.00;;;;;;10376700;28;20200;-82
2022/10/08 09:17:18;;;;;;;10.20;5.53;;;16.90;1.00;;;;;;10358483;28;20413;-83
2022/10/08 09:22:40;;;;;;;7.57;5.00;;;17.10;99.90;;;;;;10359690;28;20220;-84
2022/10/08 09:28:04;;;;;;;12.93;7.90;;;17.30;99.90;;;;;;10384854;28;20487;-83
2022/10/08 09:33:30;;;;;;;18.15;7.90;;;17.20;1.00;;;;;;10371038;28;20230;-83
2022/10/08 09:38:58;;;;;;;11.40;5.70;;;17.20;1.00;;;;;;10384472;28;20238;-83
2022/10/08 09:44:22;;;;;;;12.52;7.28;;;17.10;1.00;;;;;;10349721;28;20194;-83
2022/10/08 09:49:48;;;;;;;15.10;7.95;;;17.40;10.70;;;;;;10329441;28;20201;-83
2022/10/08 09:55:28;;;;;;;11.05;6.13;;;17.90;1.00;;;;;;10361973;28;20241;-83
2022/10/08 10:01:01;;;;;;;12.48;7.13;;;;;;;;;;10349303;28;20598;-84
2022/10/08 10:06:27;;;;;;;10.00;5.22;;;;;;;;;;10356770;28;20220;-83
2022/10/08 10:12:12;;;;;;;11.07;4.55;;;;;;;;;;10369071;28;20257;-84
2022/10/08 10:17:40;;;;;;;8.48;4.68;;;;;;;;;;10380500;28;20556;-84
2022/10/08 10:23:17;;;;;;;6.18;4.53;;;;;;;;;;10385533;28;20264;-83
2022/10/08 10:28:51;;;;;;;8.20;5.10;;;;;;;;;;10386351;28;20447;-83
2022/10/08 10:34:33;;;;;;;8.63;5.13;;;;;;;;;;10374126;28;20220;-83
2022/10/08 10:40:09;;;;;;;10.13;4.90;;;;;;;;;;10368799;28;20251;-85
2022/10/08 10:45:35;;;;;;;6.80;4.40;;;;;;;;;;10368707;28;20454;-83
2022/10/08 10:51:03;;;;;;;7.80;4.78;;;;;;;;;;10381815;28;20250;-83
2022/10/08 10:56:25;;;;;;;7.88;5.03;;;;;;;;;;10344514;28;20201;-84
2022/10/08 11:02:28;;;;;;;12.57;6.28;;;19.00;1.00;;;;;;10340310;28;20228;-84
2022/10/08 11:08:02;;;;;;;7.97;4.40;;;19.90;1.00;;;;;;10261744;29;20207;-83
2022/10/08 11:13:41;;;;;;;10.63;3.78;;;20.30;1.00;;;;;;10256269;29;20487;-84
2022/10/08 11:19:20;;;;;;;6.47;3.72;;;19.70;1.00;;;;;;10271002;29;20362;-83
2022/10/08 11:24:54;;;;;;;14.10;7.07;;;19.10;1.00;;;;;;10273439;29;20437;-82
2022/10/08 11:30:20;;;;;;;6.78;3.40;;;18.80;1.00;;;;;;10270145;29;20286;-82
2022/10/08 11:36:31;;;;;;;10.15;4.80;;;18.70;1.00;;;;;;10273217;29;20522;-83
2022/10/08 11:42:00;;;;;;;6.95;3.72;;;18.80;99.90;;;;;;10138412;29;20244;-83
2022/10/08 11:47:35;;;;;;;11.68;6.53;;;18.70;99.90;;;;;;10151534;29;20205;-83
2022/10/08 11:53:12;;;;;;;7.22;3.65;;;18.30;99.90;;;;;;10165904;29;20576;-83
2022/10/08 11:58:34;;;;;;;10.13;4.30;;;18.10;99.90;;;;;;10206906;29;20256;-83
2022/10/08 12:04:10;;;;;;;9.95;4.28;;;18.00;99.90;;;;;;10153881;29;20276;-83
2022/10/08 12:09:59;;;;;;;11.40;5.40;;;18.20;99.90;;;;;;10187476;29;20223;-83
2022/10/08 12:15:23;;;;;;;6.15;4.38;;;18.70;99.90;;;;;;10322374;28;20212;-83
2022/10/08 12:20:45;;;;;;;15.13;7.28;;;;;;;;;;10357175;28;20221;-83
2022/10/08 12:26:31;;;;;;;23.38;10.75;;;21.70;25.70;;;;;;10385048;28;20380;-83
2022/10/08 12:32:02;;;;;;;15.25;5.38;;;22.50;1.00;;;;;;10380929;28;20243;-83
2022/10/08 12:37:35;;;;;;;14.50;8.73;;;22.50;1.00;;;;;;10364325;28;20201;-83
2022/10/08 12:43:23;;;;;;;8.35;4.75;;;23.20;1.00;;;;;;10363994;28;20239;-83
2022/10/08 12:48:58;;;;;;;12.15;4.32;;;23.50;99.90;;;;;;10378338;28;20205;-83
2022/10/08 12:54:26;;;;;;;12.77;4.20;;;23.60;99.90;;;;;;10365616;28;20243;-83
2022/10/08 12:59:49;;;;;;;13.48;4.75;;;23.20;99.90;;;;;;10397155;28;20244;-83
2022/10/08 13:05:30;;;;;;;11.48;4.57;;;22.50;99.90;;;;;;10402414;28;20379;-83
2022/10/08 13:10:51;;;;;;;15.20;5.13;;;20.70;99.90;;;;;;10382839;28;20236;-83
2022/10/08 13:16:19;;;;;;;12.48;4.18;;;20.30;99.90;;;;;;10375536;28;20232;-84
2022/10/08 13:21:52;;;;;;;8.38;3.72;;;21.30;99.90;;;;;;10371053;28;20228;-84
2022/10/08 13:27:32;;;;;;;8.38;3.40;;;21.40;99.90;;;;;;10359565;28;20198;-83
2022/10/08 13:33:05;;;;;;;9.88;3.50;;;21.80;99.90;;;;;;10349305;28;20481;-83
2022/10/08 13:38:30;;;;;;;10.55;4.28;;;21.70;99.90;;;;;;10376519;28;20260;-84
2022/10/08 13:43:51;;;;;;;8.45;3.38;;;21.10;99.90;;;;;;10398847;28;20223;-83
2022/10/08 13:49:22;;;;;;;17.35;7.53;;;20.90;99.90;;;;;;10370129;28;20197;-82
2022/10/08 13:54:44;;;;;;;11.25;5.75;;;19.90;99.90;;;;;;10369731;28;20248;-82
2022/10/08 14:00:06;;;;;;;10.73;4.70;;;18.70;1.00;;;;;;10369353;28;20228;-82
2022/10/08 14:05:29;;;;;;;10.68;4.53;;;17.90;1.00;;;;;;10369415;28;20203;-83
2022/10/08 14:10:56;;;;;;;14.60;5.50;;;17.40;1.00;;;;;;10377217;28;20207;-83
2022/10/08 14:16:18;;;;;;;8.23;4.90;;;17.00;1.00;;;;;;10353344;28;20203;-82
2022/10/08 14:21:39;;;;;;;12.48;5.50;;;16.70;99.90;;;;;;10368366;28;20227;-82
2022/10/08 14:27:01;;;;;;;15.75;4.95;;;16.60;99.90;;;;;;10368448;28;20195;-83
2022/10/08 14:32:24;;;;;;;6.03;2.47;;;16.50;99.90;;;;;;10382214;28;20388;-82
2022/10/08 14:37:46;;;;;;;7.80;2.58;;;16.20;1.00;;;;;;10368324;28;20201;-82
2022/10/08 14:43:07;;;;;;;7.90;2.50;;;16.10;1.00;;;;;;10384510;28;20200;-83
2022/10/08 14:48:29;;;;;;;11.98;3.45;;;15.90;1.00;;;;;;10368443;28;20204;-83
2022/10/08 14:53:51;;;;;;;7.75;2.88;;;15.80;1.00;;;;;;10384125;28;20230;-82
2022/10/08 14:59:13;;;;;;;7.63;3.17;;;15.70;1.00;;;;;;10380682;28;20597;-83
2022/10/08 15:04:34;;;;;;;6.68;3.15;;;15.50;1.00;;;;;;10330507;28;20203;-83
2022/10/08 15:09:55;;;;;;;16.55;4.80;;;15.30;1.00;;;;;;10358825;28;20228;-82
2022/10/08 15:15:18;;;;;;;12.88;4.68;;;;;;;;;;10366344;28;20201;-83
2022/10/08 15:20:40;;;;;;;14.33;4.00;;;15.00;1.00;;;;;;10368510;28;20233;-82
2022/10/08 15:26:04;;;;;;;17.90;5.77;;;14.70;80.80;;;;;;10369540;28;20192;-83
2022/10/08 15:31:29;;;;;;;10.43;3.20;;;14.40;1.00;;;;;;10380304;28;20491;-82
2022/10/08 15:36:54;;;;;;;10.60;2.60;;;14.20;1.00;;;;;;10379369;28;20564;-82
2022/10/08 15:42:15;;;;;;;6.72;2.90;;;14.10;1.00;;;;;;10365714;28;20266;-82
2022/10/08 15:47:36;;;;;;;7.40;3.03;;;14.00;1.00;;;;;;10365928;28;20200;-81
2022/10/08 15:52:58;;;;;;;5.00;2.83;;;13.90;1.00;;;;;;10378263;28;20242;-82
2022/10/08 15:58:19;;;;;;;7.87;4.70;;;13.80;1.00;;;;;;10365235;28;20421;-82
2022/10/08 16:03:54;;;;;;;20.20;12.50;;;13.80;1.00;;;;;;10377014;28;20208;-83
2022/10/08 16:09:17;;;;;;;21.57;13.03;;;13.80;1.00;;;;;;10364842;28;20192;-82
2022/10/08 16:14:38;;;;;;;22.70;12.93;;;13.70;1.00;;;;;;10364263;28;20223;-82
2022/10/08 16:20:00;;;;;;;35.37;16.07;;;13.70;1.00;;;;;;10379546;28;20224;-82
2022/10/08 16:25:22;;;;;;;47.07;22.87;;;;;;;;;;10370586;28;20193;-82
2022/10/08 16:30:43;;;;;;;42.60;22.77;;;13.50;10.20;;;;;;10350798;28;20213;-82
2022/10/08 16:36:07;;;;;;;27.70;14.80;;;13.40;8.90;;;;;;10376620;28;20491;-82
2022/10/08 16:41:30;;;;;;;24.10;14.67;;;13.40;1.00;;;;;;10380783;28;20227;-82
2022/10/08 16:46:52;;;;;;;29.90;15.93;;;13.20;1.80;;;;;;10380739;28;20490;-82
2022/10/08 16:52:13;;;;;;;19.27;11.30;;;13.10;18.60;;;;;;10393850;28;20259;-82
2022/10/08 16:57:35;;;;;;;19.90;9.83;;;13.10;17.70;;;;;;10377696;28;20278;-82
2022/10/08 17:02:56;;;;;;;32.60;14.23;;;13.10;51.10;;;;;;10377090;28;20234;-82
2022/10/08 17:08:18;;;;;;;39.80;17.23;;;13.00;38.80;;;;;;10391282;28;20246;-83
2022/10/08 17:13:41;;;;;;;26.97;12.00;;;13.10;53.80;;;;;;10363335;28;20210;-83
2022/10/08 17:19:03;;;;;;;26.90;12.00;;;13.00;42.20;;;;;;10377291;28;20231;-83
2022/10/08 17:24:24;;;;;;;19.67;10.40;;;12.90;57.80;;;;;;10363695;28;20241;-82
2022/10/08 17:29:46;;;;;;;31.10;14.37;;;12.80;85.80;;;;;;10379974;28;20196;-82
2022/10/08 17:35:08;;;;;;;21.90;10.80;;;12.80;79.10;;;;;;10363074;28;20293;-82
2022/10/08 17:40:29;;;;;;;20.87;11.33;;;12.80;97.40;;;;;;10376553;28;20421;-82
2022/10/08 17:45:51;;;;;;;25.90;13.77;;;12.70;99.90;;;;;;10401731;28;20238;-83
2022/10/08 17:51:21;;;;;;;23.60;14.23;;;12.60;99.90;;;;;;10383978;28;20227;-82
2022/10/08 17:56:42;;;;;;;40.53;17.97;;;12.50;99.90;;;;;;10357220;28;20203;-82
2022/10/08 18:02:03;;;;;;;31.47;14.30;;;12.40;99.90;;;;;;10356890;28;20232;-82
2022/10/08 18:07:26;;;;;;;24.60;12.33;;;12.40;99.90;;;;;;10380650;28;20286;-82
2022/10/08 18:12:47;;;;;;;28.07;13.10;;;12.30;99.90;;;;;;10384100;28;20257;-82
2022/10/08 18:18:09;;;;;;;22.60;12.70;;;12.30;99.90;;;;;;10385010;28;20207;-81
2022/10/08 18:23:32;;;;;;;21.97;14.93;;;12.20;99.90;;;;;;10370152;28;20226;-82
2022/10/08 18:28:56;;;;;;;31.80;18.00;;;;;;;;;;10383182;28;20210;-81
2022/10/08 18:34:20;;;;;;;27.93;14.73;;;;;;;;;;10355364;28;20449;-82
2022/10/08 18:39:44;;;;;;;22.33;10.80;;;;;;;;;;10382470;28;20424;-82
2022/10/08 18:45:08;;;;;;;31.07;11.80;;;;;;;;;;10368843;28;20214;-81
2022/10/08 18:50:32;;;;;;;23.20;10.80;;;;;;;;;;10382842;28;20514;-82
2022/10/08 18:55:55;;;;;;;25.90;12.03;;;12.30;99.90;;;;;;10354161;28;20228;-82
2022/10/08 19:01:24;;;;;;;31.03;12.70;;;12.40;99.90;;;;;;10367791;28;20234;-83
2022/10/08 19:06:49;;;;;;;25.37;10.87;;;;;;;;;;10313985;28;20226;-83
2022/10/08 19:12:13;;;;;;;12.37;7.27;;;;;;;;;;10384129;28;20192;-82
2022/10/08 19:17:37;;;;;;;13.27;5.40;;;;;;;;;;10361873;28;20265;-82
2022/10/08 19:23:01;;;;;;;11.43;4.77;;;;;;;;;;10381796;28;20238;-82
2022/10/08 19:28:25;;;;;;;11.87;4.27;;;;;;;;;;10401967;28;20190;-83
2022/10/08 19:33:53;;;;;;;8.73;4.07;;;;;;;;;;10357837;28;20261;-82
2022/10/08 19:39:17;;;;;;;13.17;4.80;;;;;;;;;;10340435;28;20528;-81
2022/10/08 19:44:38;;;;;;;13.40;6.83;;;12.30;99.90;;;;;;10355676;28;20208;-82
2022/10/08 19:50:00;;;;;;;14.80;5.67;;;11.60;99.90;;;;;;10342069;28;20199;-82
2022/10/08 19:55:21;;;;;;;10.83;4.60;;;11.50;99.90;;;;;;10352537;28;20315;-82
2022/10/08 20:00:43;;;;;;;8.00;3.97;;;11.50;99.90;;;;;;10363236;28;20226;-83
2022/10/08 20:06:13;;;;;;;6.87;3.40;;;11.50;75.20;;;;;;10365725;28;20191;-83
2022/10/08 20:11:34;;;;;;;6.10;3.43;;;11.40;54.30;;;;;;10396089;28;20228;-82
2022/10/08 20:16:56;;;;;;;6.23;2.47;;;11.40;30.00;;;;;;10379486;28;20209;-82
2022/10/08 20:22:17;;;;;;;4.50;2.10;;;11.40;5.50;;;;;;10367863;28;20218;-82
2022/10/08 20:27:38;;;;;;;6.53;2.70;;;11.50;1.00;;;;;;10365448;28;20227;-82
2022/10/08 20:33:00;;;;;;;5.30;2.67;;;11.30;1.00;;;;;;10327331;28;20489;-82
2022/10/08 20:38:21;;;;;;;6.73;2.80;;;11.40;1.00;;;;;;10354430;28;20204;-82
2022/10/08 20:43:43;;;;;;;4.57;1.83;;;11.30;1.00;;;;;;10326716;28;20204;-82
2022/10/08 20:49:05;;;;;;;4.33;1.90;;;;;;;;;;10368098;28;20226;-82
2022/10/08 20:54:26;;;;;;;4.30;2.03;;;11.70;1.00;;;;;;10337542;28;20465;-82
2022/10/08 20:59:48;;;;;;;7.53;2.00;;;11.10;1.00;;;;;;10373159;28;20223;-82
2022/10/08 21:05:09;;;;;;;2.40;1.60;;;10.90;1.00;;;;;;10364672;28;20501;-82
2022/10/08 21:10:36;;;;;;;5.23;2.20;;;10.90;1.00;;;;;;10377593;28;20201;-82
2022/10/08 21:16:05;;;;;;;4.40;2.30;;;10.90;1.00;;;;;;10360554;28;20371;-82
2022/10/08 21:21:28;;;;;;;3.50;2.30;;;11.00;1.00;;;;;;10387413;28;20272;-82
2022/10/08 21:26:50;;;;;;;4.00;1.80;;;10.90;1.00;;;;;;10371674;28;20196;-82
2022/10/08 21:32:12;;;;;;;3.07;1.57;;;10.90;5.80;;;;;;10371445;28;20291;-82
2022/10/08 21:37:34;;;;;;;3.97;1.50;;;10.80;1.00;;;;;;10387533;28;20193;-82
2022/10/08 21:42:55;;;;;;;5.77;1.90;;;10.70;1.00;;;;;;10370808;28;20437;-82
2022/10/08 21:48:17;;;;;;;3.20;1.77;;;10.70;1.00;;;;;;10370688;28;20200;-82
2022/10/08 21:53:43;;;;;;;3.90;1.70;;;10.60;9.60;;;;;;10370553;28;20251;-82
2022/10/08 21:59:07;;;;;;;5.43;1.77;;;10.50;27.60;;;;;;10383476;28;20434;-82
2022/10/08 22:04:28;;;;;;;3.07;1.50;;;10.50;40.40;;;;;;10370320;28;20200;-82
2022/10/08 22:09:49;;;;;;;4.20;1.43;;;10.60;37.30;;;;;;10375465;28;20196;-82
2022/10/08 22:15:10;;;;;;;6.67;1.60;;;10.60;49.10;;;;;;10378289;28;20441;-83
2022/10/08 22:20:34;;;;;;;4.47;1.57;;;10.60;47.20;;;;;;10400747;28;20620;-81
2022/10/08 22:25:57;;;;;;;3.27;1.27;;;10.60;39.80;;;;;;10385595;28;20271;-82
2022/10/08 22:31:34;;;;;;;3.53;1.67;;;10.70;53.60;;;;;;10384713;28;20195;-82
2022/10/08 22:36:55;;;;;;;5.20;1.83;;;10.70;49.60;;;;;;10355422;28;20206;-82
2022/10/08 22:42:17;;;;;;;8.03;1.90;;;10.70;22.80;;;;;;10355076;28;20473;-82
2022/10/08 22:47:38;;;;;;;7.53;1.63;;;10.70;41.50;;;;;;10354644;28;20196;-82
2022/10/08 22:53:00;;;;;;;7.17;2.53;;;10.70;44.50;;;;;;10367850;28;20233;-82
2022/10/08 22:58:22;;;;;;;3.20;1.97;;;10.70;48.30;;;;;;10381370;28;20276;-82
2022/10/08 23:03:43;;;;;;;8.23;2.20;;;10.60;37.00;;;;;;10384511;28;20236;-82
2022/10/08 23:09:10;;;;;;;4.30;1.60;;;10.50;40.70;;;;;;10365417;28;20386;-82
2022/10/08 23:14:31;;;;;;;3.93;1.47;;;10.50;48.60;;;;;;10371948;28;20212;-82
2022/10/08 23:19:53;;;;;;;3.10;1.33;;;10.50;47.90;;;;;;10344682;28;20539;-81
2022/10/08 23:25:14;;;;;;;5.57;1.60;;;10.50;50.30;;;;;;10351587;28;20193;-82
2022/10/08 23:30:35;;;;;;;8.27;1.37;;;10.50;61.60;;;;;;10396473;28;20265;-82
2022/10/08 23:36:08;;;;;;;4.00;1.40;;;10.50;68.30;;;;;;10382423;28;20274;-82
2022/10/08 23:41:30;;;;;;;6.87;1.83;;;10.50;79.50;;;;;;10352311;28;20232;-82
2022/10/08 23:46:51;;;;;;;4.57;1.50;;;10.40;67.50;;;;;;10379328;28;20207;-82
2022/10/08 23:52:13;;;;;;;4.07;2.30;;;10.40;64.00;;;;;;10382838;28;20243;-82
2022/10/08 23:57:34;;;;;;;3.67;1.70;;;10.20;62.40;;;;;;10361981;28;20186;-82
